createdAt,value
2023-01-22T00:29:30.252Z,1020.55
2023-01-22T00:30:10.676Z,1020.58
2023-01-22T00:30:51.213Z,1020.6
2023-01-22T00:31:31.817Z,1020.63
2023-01-22T00:32:12.284Z,1020.67
2023-01-22T00:32:52.780Z,1020.61
2023-01-22T00:33:33.201Z,1020.58
2023-01-22T00:34:13.765Z,1020.57
2023-01-22T00:34:54.227Z,1020.59
2023-01-22T00:35:34.733Z,1020.64
2023-01-22T00:36:15.206Z,1020.61
2023-01-22T00:36:56.179Z,1020.63
2023-01-22T00:37:36.197Z,1020.58
2023-01-22T00:38:16.746Z,1020.58
2023-01-22T00:38:57.272Z,1020.55
2023-01-22T00:39:37.775Z,1020.54
2023-01-22T00:40:18.383Z,1020.56
2023-01-22T00:40:58.756Z,1020.52
2023-01-22T00:41:39.239Z,1020.51
2023-01-22T00:42:19.721Z,1020.55
2023-01-22T00:43:00.205Z,1020.52
2023-01-22T00:43:40.723Z,1020.47
2023-01-22T00:44:21.151Z,1020.46
2023-01-22T00:45:01.636Z,1020.5
2023-01-22T00:45:42.138Z,1020.44
2023-01-22T00:46:22.629Z,1020.42
2023-01-22T00:47:03.118Z,1020.42
2023-01-22T00:47:43.612Z,1020.41
2023-01-22T00:49:04.541Z,1020.38
2023-01-22T00:49:45.008Z,1020.37
2023-01-22T00:50:25.518Z,1020.39
2023-01-22T00:51:06.204Z,1020.33
2023-01-22T00:51:46.558Z,1020.35
2023-01-22T00:52:27.109Z,1020.33
2023-01-22T00:53:07.538Z,1020.3
2023-01-22T00:53:48.033Z,1020.32
2023-01-22T00:54:28.575Z,1020.3
2023-01-22T00:55:09.061Z,1020.28
2023-01-22T00:55:49.531Z,1020.29
2023-01-22T00:56:30.037Z,1020.25
2023-01-22T00:57:10.499Z,1020.22
2023-01-22T00:57:51.011Z,1020.24
2023-01-22T00:59:11.987Z,1020.19
2023-01-22T00:59:52.521Z,1020.23
2023-01-22T01:00:39.092Z,1020.16
2023-01-22T01:01:13.553Z,1020.14
2023-01-22T01:01:54.025Z,1020.14
2023-01-22T01:02:34.531Z,1020.08
2023-01-22T01:03:15.008Z,1020.13
2023-01-22T01:03:55.506Z,1020.16
2023-01-22T01:04:36.087Z,1020.22
2023-01-22T01:05:16.545Z,1020.19
2023-01-22T01:05:57.053Z,1020.19
2023-01-22T01:06:37.536Z,1020.18
2023-01-22T01:07:18.041Z,1020.18
2023-01-22T01:07:58.541Z,1020.12
2023-01-22T01:08:39.056Z,1020.07
2023-01-22T01:09:19.540Z,1020.08
2023-01-22T01:10:00.034Z,1020.04
2023-01-22T01:10:40.517Z,1020.03
2023-01-22T01:11:21.038Z,1020.1
2023-01-22T01:12:01.497Z,1020.06
2023-01-22T01:12:42.076Z,1020.06
2023-01-22T01:13:22.518Z,1020.09
2023-01-22T01:14:02.954Z,1020.07
2023-01-22T01:14:43.488Z,1020.09
2023-01-22T01:15:23.990Z,1020.09
2023-01-22T01:16:04.483Z,1020.06
2023-01-22T01:16:44.932Z,1020.07
2023-01-22T01:17:25.458Z,1020.04
2023-01-22T01:18:05.916Z,1020.02
2023-01-22T01:19:26.875Z,1019.97
2023-01-22T01:20:07.356Z,1019.98
2023-01-22T01:20:47.833Z,1019.98
2023-01-22T01:21:28.384Z,1020
2023-01-22T01:22:08.867Z,1019.95
2023-01-22T01:22:49.412Z,1020.02
2023-01-22T01:23:29.833Z,1020.07
2023-01-22T01:24:11.248Z,1020.02
2023-01-22T01:24:51.688Z,1020.02
2023-01-22T01:25:32.204Z,1020.09
2023-01-22T01:26:12.635Z,1020.03
2023-01-22T01:26:53.148Z,1020.05
2023-01-22T01:27:33.599Z,1020.07
2023-01-22T01:28:14.279Z,1020.05
2023-01-22T01:29:35.130Z,1020.12
2023-01-22T01:30:16.066Z,1020
2023-01-22T01:30:56.145Z,1020.08
2023-01-22T01:31:36.552Z,1020.09
2023-01-22T01:32:17.007Z,1020.07
2023-01-22T01:32:57.526Z,1020.11
2023-01-22T01:33:38.025Z,1020.12
2023-01-22T01:34:18.528Z,1020.08
2023-01-22T01:34:59.000Z,1020.11
2023-01-22T01:35:39.541Z,1020.12
2023-01-22T01:37:00.546Z,1020.13
2023-01-22T01:37:41.119Z,1020.13
2023-01-22T01:38:21.574Z,1020.13
2023-01-22T01:39:02.057Z,1020.08
2023-01-22T01:39:42.564Z,1020.11
2023-01-22T01:40:23.049Z,1020.11
2023-01-22T01:41:03.523Z,1020.12
2023-01-22T01:41:44.005Z,1020.1
2023-01-22T01:42:24.465Z,1020.16
2023-01-22T01:43:04.956Z,1020.1
2023-01-22T01:43:45.598Z,1020.14
2023-01-22T01:44:26.003Z,1020.17
2023-01-22T01:45:06.511Z,1020.12
2023-01-22T01:45:46.994Z,1020.16
2023-01-22T01:47:07.962Z,1020.11
2023-01-22T01:47:48.448Z,1020.09
2023-01-22T01:48:28.989Z,1020.09
2023-01-22T01:49:09.430Z,1020.04
2023-01-22T01:49:49.956Z,1020.07
2023-01-22T01:50:30.441Z,1020.08
2023-01-22T01:51:10.986Z,1020.06
2023-01-22T01:51:51.456Z,1020.05
2023-01-22T01:52:31.936Z,1020.08
2023-01-22T01:53:12.434Z,1020.07
2023-01-22T01:53:52.942Z,1020.03
2023-01-22T01:57:06.582Z,1020.02
2023-01-22T01:57:47.145Z,1020.03
2023-01-22T01:58:27.621Z,1019.98
2023-01-22T01:59:08.226Z,1020.06
2023-01-22T01:59:48.609Z,1019.99
2023-01-22T02:00:29.095Z,1020
2023-01-22T02:01:09.678Z,1020.02
2023-01-22T02:01:50.096Z,1020.06
2023-01-22T02:02:30.531Z,1020.01
2023-01-22T02:03:11.074Z,1020.02
2023-01-22T02:03:51.541Z,1020.04
2023-01-22T02:04:32.087Z,1019.97
2023-01-22T02:05:12.537Z,1019.99
2023-01-22T02:05:53.018Z,1020.02
2023-01-22T02:06:33.520Z,1020
2023-01-22T02:07:14.016Z,1019.97
2023-01-22T02:07:54.487Z,1019.93
2023-01-22T02:08:35.001Z,1019.95
2023-01-22T02:09:15.475Z,1019.93
2023-01-22T02:09:55.963Z,1019.92
2023-01-22T02:10:36.459Z,1019.9
2023-01-22T02:11:16.977Z,1019.9
2023-01-22T02:11:57.501Z,1019.94
2023-01-22T02:12:37.981Z,1019.92
2023-01-22T02:13:18.491Z,1019.91
2023-01-22T02:13:59.045Z,1019.94
2023-01-22T02:14:39.685Z,1019.92
2023-01-22T02:15:20.026Z,1019.92
2023-01-22T02:16:00.596Z,1019.91
2023-01-22T02:16:41.060Z,1019.94
2023-01-22T02:17:21.497Z,1019.96
2023-01-22T02:18:01.972Z,1019.96
2023-01-22T02:18:42.471Z,1019.97
2023-01-22T02:19:22.977Z,1019.98
2023-01-22T02:20:03.531Z,1019.98
2023-01-22T02:20:43.986Z,1019.95
2023-01-22T02:21:24.482Z,1019.97
2023-01-22T02:22:04.953Z,1019.98
2023-01-22T02:22:45.468Z,1019.99
2023-01-22T02:23:25.939Z,1019.92
2023-01-22T02:24:06.414Z,1019.93
2023-01-22T02:24:46.922Z,1019.94
2023-01-22T02:25:27.436Z,1019.97
2023-01-22T02:26:07.897Z,1019.9
2023-01-22T02:26:48.386Z,1019.88
2023-01-22T02:27:28.877Z,1019.91
2023-01-22T02:28:09.468Z,1019.85
2023-01-22T02:28:50.658Z,1019.88
2023-01-22T02:30:10.976Z,1019.86
2023-01-22T02:30:51.421Z,1019.85
2023-01-22T02:31:31.909Z,1019.81
2023-01-22T02:32:12.358Z,1019.85
2023-01-22T02:32:52.880Z,1019.93
2023-01-22T02:33:33.364Z,1019.83
2023-01-22T02:34:13.864Z,1019.82
2023-01-22T02:34:54.325Z,1019.8
2023-01-22T02:35:34.850Z,1019.8
2023-01-22T02:36:15.356Z,1019.83
2023-01-22T02:36:55.865Z,1019.84
2023-01-22T02:37:36.375Z,1019.83
2023-01-22T02:38:16.866Z,1019.78
2023-01-22T02:38:57.357Z,1019.8
2023-01-22T02:39:37.837Z,1019.8
2023-01-22T02:40:18.604Z,1019.8
2023-01-22T02:40:58.804Z,1019.79
2023-01-22T02:41:39.313Z,1019.78
2023-01-22T02:42:19.819Z,1019.79
2023-01-22T02:43:00.297Z,1019.78
2023-01-22T02:43:40.798Z,1019.8
2023-01-22T02:44:21.282Z,1019.78
2023-01-22T02:45:01.759Z,1019.75
2023-01-22T02:45:42.449Z,1019.77
2023-01-22T02:46:22.752Z,1019.78
2023-01-22T02:47:03.270Z,1019.74
2023-01-22T02:47:43.752Z,1019.75
2023-01-22T02:48:24.264Z,1019.77
2023-01-22T02:49:04.773Z,1019.74
2023-01-22T02:49:45.250Z,1019.73
2023-01-22T02:50:25.778Z,1019.75
2023-01-22T02:51:06.251Z,1019.78
2023-01-22T02:51:46.783Z,1019.81
2023-01-22T02:52:27.227Z,1019.84
2023-01-22T02:53:07.793Z,1019.78
2023-01-22T02:53:48.233Z,1019.82
2023-01-22T02:54:28.752Z,1019.84
2023-01-22T02:55:09.259Z,1019.84
2023-01-22T02:55:49.796Z,1019.83
2023-01-22T02:56:30.305Z,1019.82
2023-01-22T02:57:10.735Z,1019.79
2023-01-22T02:57:51.213Z,1019.83
2023-01-22T02:58:31.683Z,1019.83
2023-01-22T02:59:12.200Z,1019.83
2023-01-22T02:59:52.709Z,1019.83
2023-01-22T03:00:33.179Z,1019.8
2023-01-22T03:01:13.798Z,1019.83
2023-01-22T03:01:54.233Z,1019.8
2023-01-22T03:02:34.661Z,1019.78
2023-01-22T03:03:15.197Z,1019.78
2023-01-22T03:03:55.604Z,1019.78
2023-01-22T03:04:36.111Z,1019.82
2023-01-22T03:05:16.616Z,1019.81
2023-01-22T03:05:57.093Z,1019.81
2023-01-22T03:06:37.579Z,1019.8
2023-01-22T03:07:58.592Z,1019.85
2023-01-22T03:08:39.079Z,1019.78
2023-01-22T03:09:19.602Z,1019.76
2023-01-22T03:10:00.124Z,1019.76
2023-01-22T03:10:40.564Z,1019.74
2023-01-22T03:11:21.083Z,1019.72
2023-01-22T03:12:01.596Z,1019.73
2023-01-22T03:12:42.113Z,1019.75
2023-01-22T03:13:22.608Z,1019.7
2023-01-22T03:14:03.148Z,1019.74
2023-01-22T03:14:43.614Z,1019.74
2023-01-22T03:15:24.120Z,1019.7
2023-01-22T03:16:04.627Z,1019.66
2023-01-22T03:16:45.280Z,1019.65
2023-01-22T03:17:25.603Z,1019.67
2023-01-22T03:18:06.106Z,1019.69
2023-01-22T03:18:46.647Z,1019.65
2023-01-22T03:19:27.229Z,1019.69
2023-01-22T03:20:07.698Z,1019.72
2023-01-22T03:20:48.212Z,1019.71
2023-01-22T03:21:28.753Z,1019.72
2023-01-22T03:22:09.271Z,1019.72
2023-01-22T03:22:49.746Z,1019.71
2023-01-22T03:23:30.277Z,1019.72
2023-01-22T03:24:10.802Z,1019.74
2023-01-22T03:24:51.211Z,1019.69
2023-01-22T03:25:31.686Z,1019.69
2023-01-22T03:26:12.175Z,1019.76
2023-01-22T03:26:52.645Z,1019.71
2023-01-22T03:27:33.145Z,1019.75
2023-01-22T03:28:13.662Z,1019.73
2023-01-22T03:28:54.179Z,1019.76
2023-01-22T03:29:34.676Z,1019.72
2023-01-22T03:30:15.178Z,1019.71
2023-01-22T03:30:55.774Z,1019.7
2023-01-22T03:31:36.248Z,1019.74
2023-01-22T03:32:16.900Z,1019.76
2023-01-22T03:32:57.177Z,1019.74
2023-01-22T03:33:37.710Z,1019.71
2023-01-22T03:34:18.226Z,1019.72
2023-01-22T03:34:58.742Z,1019.68
2023-01-22T03:35:39.226Z,1019.74
2023-01-22T03:36:19.808Z,1019.68
2023-01-22T03:37:00.983Z,1019.68
2023-01-22T03:37:43.380Z,1019.66
2023-01-22T03:38:23.844Z,1019.68
2023-01-22T03:39:04.344Z,1019.67
2023-01-22T03:39:44.867Z,1019.66
2023-01-22T03:40:25.341Z,1019.62
2023-01-22T03:41:05.903Z,1019.63
2023-01-22T03:41:46.322Z,1019.6
2023-01-22T03:42:26.841Z,1019.59
2023-01-22T03:43:07.323Z,1019.61
2023-01-22T03:43:47.870Z,1019.58
2023-01-22T03:44:28.309Z,1019.6
2023-01-22T03:45:08.790Z,1019.57
2023-01-22T03:45:49.267Z,1019.61
2023-01-22T03:46:29.753Z,1019.5
2023-01-22T03:47:10.240Z,1019.53
2023-01-22T03:47:50.867Z,1019.54
2023-01-22T03:48:31.216Z,1019.53
2023-01-22T03:49:11.729Z,1019.56
2023-01-22T03:49:52.223Z,1019.5
2023-01-22T03:50:32.731Z,1019.53
2023-01-22T03:51:13.321Z,1019.53
2023-01-22T03:51:53.734Z,1019.54
2023-01-22T03:52:34.298Z,1019.55
2023-01-22T03:53:14.757Z,1019.5
2023-01-22T03:53:55.255Z,1019.52
2023-01-22T03:54:35.806Z,1019.52
2023-01-22T03:55:16.300Z,1019.51
2023-01-22T03:55:56.799Z,1019.54
2023-01-22T03:56:37.263Z,1019.56
2023-01-22T03:57:17.778Z,1019.59
2023-01-22T03:57:58.301Z,1019.56
2023-01-22T03:58:38.777Z,1019.55
2023-01-22T03:59:19.278Z,1019.61
2023-01-22T03:59:59.772Z,1019.57
2023-01-22T04:00:40.629Z,1019.57
2023-01-22T04:01:20.918Z,1019.58
2023-01-22T04:02:01.328Z,1019.58
2023-01-22T04:02:41.849Z,1019.59
2023-01-22T04:03:22.435Z,1019.56
2023-01-22T04:04:02.836Z,1019.55
2023-01-22T04:04:43.363Z,1019.58
2023-01-22T04:05:23.861Z,1019.55
2023-01-22T04:06:04.355Z,1019.58
2023-01-22T04:06:44.863Z,1019.64
2023-01-22T04:07:25.375Z,1019.67
2023-01-22T04:08:05.916Z,1019.63
2023-01-22T04:08:46.410Z,1019.65
2023-01-22T04:09:26.936Z,1019.65
2023-01-22T04:10:07.409Z,1019.62
2023-01-22T04:10:47.905Z,1019.67
2023-01-22T04:14:01.932Z,1019.62
2023-01-22T04:14:42.394Z,1019.63
2023-01-22T04:15:22.887Z,1019.55
2023-01-22T04:16:03.341Z,1019.55
2023-01-22T04:16:43.874Z,1019.63
2023-01-22T04:17:26.665Z,1019.63
2023-01-22T04:18:46.141Z,1019.61
2023-01-22T04:19:26.539Z,1019.61
2023-01-22T04:20:07.012Z,1019.58
2023-01-22T04:20:47.530Z,1019.61
2023-01-22T04:21:27.990Z,1019.64
2023-01-22T04:22:08.448Z,1019.62
2023-01-22T04:22:48.909Z,1019.58
2023-01-22T04:23:29.418Z,1019.63
2023-01-22T04:24:09.871Z,1019.61
2023-01-22T04:24:50.318Z,1019.59
2023-01-22T04:26:11.326Z,1019.59
2023-01-22T04:26:51.796Z,1019.59
2023-01-22T04:27:32.288Z,1019.57
2023-01-22T04:28:12.760Z,1019.59
2023-01-22T04:28:53.273Z,1019.59
2023-01-22T04:29:34.304Z,1019.55
2023-01-22T04:30:14.795Z,1019.54
2023-01-22T04:30:55.397Z,1019.55
2023-01-22T04:31:36.004Z,1019.53
2023-01-22T04:32:16.253Z,1019.52
2023-01-22T04:32:56.763Z,1019.57
2023-01-22T04:33:37.259Z,1019.55
2023-01-22T04:34:17.878Z,1019.56
2023-01-22T04:34:58.273Z,1019.55
2023-01-22T04:35:38.728Z,1019.6
2023-01-22T04:36:19.189Z,1019.6
2023-01-22T04:36:59.678Z,1019.65
2023-01-22T04:37:40.181Z,1019.59
2023-01-22T04:38:20.692Z,1019.54
2023-01-22T04:39:01.191Z,1019.55
2023-01-22T04:39:41.681Z,1019.57
2023-01-22T04:40:22.149Z,1019.53
2023-01-22T04:41:02.666Z,1019.53
2023-01-22T04:41:43.176Z,1019.54
2023-01-22T04:42:23.713Z,1019.55
2023-01-22T04:43:04.165Z,1019.54
2023-01-22T04:43:44.674Z,1019.56
2023-01-22T04:44:25.165Z,1019.54
2023-01-22T04:45:05.649Z,1019.53
2023-01-22T04:45:46.215Z,1019.54
2023-01-22T04:46:26.720Z,1019.55
2023-01-22T04:47:07.145Z,1019.53
2023-01-22T04:47:47.647Z,1019.58
2023-01-22T04:48:28.245Z,1019.63
2023-01-22T04:49:08.650Z,1019.61
2023-01-22T04:49:49.234Z,1019.64
2023-01-22T04:50:29.666Z,1019.63
2023-01-22T04:51:10.197Z,1019.66
2023-01-22T04:51:50.707Z,1019.61
2023-01-22T04:52:31.177Z,1019.64
2023-01-22T04:53:11.712Z,1019.65
2023-01-22T04:53:52.158Z,1019.67
2023-01-22T04:54:32.653Z,1019.65
2023-01-22T04:55:13.175Z,1019.69
2023-01-22T04:55:53.653Z,1019.66
2023-01-22T04:56:34.134Z,1019.68
2023-01-22T04:57:14.657Z,1019.63
2023-01-22T04:57:55.182Z,1019.6
2023-01-22T04:58:35.638Z,1019.67
2023-01-22T04:59:16.145Z,1019.66
2023-01-22T04:59:56.645Z,1019.65
2023-01-22T05:00:37.109Z,1019.66
2023-01-22T05:01:17.672Z,1019.67
2023-01-22T05:01:58.035Z,1019.65
2023-01-22T05:02:39.501Z,1019.68
2023-01-22T05:03:19.936Z,1019.66
2023-01-22T05:04:00.444Z,1019.62
2023-01-22T05:04:40.950Z,1019.63
2023-01-22T05:05:27.354Z,1019.63
2023-01-22T05:06:02.098Z,1019.63
2023-01-22T05:07:22.961Z,1019.67
2023-01-22T05:08:03.481Z,1019.59
2023-01-22T05:08:43.962Z,1019.63
2023-01-22T05:09:24.421Z,1019.65
2023-01-22T05:10:04.945Z,1019.66
2023-01-22T05:10:45.429Z,1019.64
2023-01-22T05:11:25.953Z,1019.7
2023-01-22T05:12:06.394Z,1019.69
2023-01-22T05:12:46.883Z,1019.68
2023-01-22T05:13:27.412Z,1019.64
2023-01-22T05:14:09.795Z,1019.66
2023-01-22T05:14:48.416Z,1019.66
2023-01-22T05:15:28.994Z,1019.67
2023-01-22T05:16:09.442Z,1019.65
2023-01-22T05:16:49.928Z,1019.66
2023-01-22T05:17:30.442Z,1019.64
2023-01-22T05:18:10.891Z,1019.59
2023-01-22T05:18:51.395Z,1019.6
2023-01-22T05:19:31.884Z,1019.53
2023-01-22T05:20:12.377Z,1019.58
2023-01-22T05:20:52.898Z,1019.61
2023-01-22T05:21:33.502Z,1019.62
2023-01-22T05:22:13.892Z,1019.63
2023-01-22T05:22:54.378Z,1019.57
2023-01-22T05:23:34.872Z,1019.6
2023-01-22T05:24:15.432Z,1019.63
2023-01-22T05:24:55.922Z,1019.58
2023-01-22T05:25:36.367Z,1019.58
2023-01-22T05:26:16.949Z,1019.58
2023-01-22T05:26:57.486Z,1019.54
2023-01-22T05:27:37.933Z,1019.58
2023-01-22T05:28:18.459Z,1019.61
2023-01-22T05:28:59.008Z,1019.61
2023-01-22T05:29:39.418Z,1019.62
2023-01-22T05:30:20.145Z,1019.6
2023-01-22T05:31:00.554Z,1019.6
2023-01-22T05:31:40.969Z,1019.6
2023-01-22T05:32:21.378Z,1019.53
2023-01-22T05:33:01.919Z,1019.58
2023-01-22T05:33:42.411Z,1019.62
2023-01-22T05:34:22.924Z,1019.63
2023-01-22T05:35:03.448Z,1019.65
2023-01-22T05:35:43.922Z,1019.64
2023-01-22T05:36:24.446Z,1019.61
2023-01-22T05:37:05.110Z,1019.64
2023-01-22T05:37:45.517Z,1019.66
2023-01-22T05:38:25.991Z,1019.63
2023-01-22T05:39:06.468Z,1019.6
2023-01-22T05:39:47.078Z,1019.61
2023-01-22T05:40:27.515Z,1019.66
2023-01-22T05:41:08.009Z,1019.63
2023-01-22T05:41:48.536Z,1019.62
2023-01-22T05:42:28.991Z,1019.59
2023-01-22T05:43:09.492Z,1019.64
2023-01-22T05:43:50.046Z,1019.59
2023-01-22T05:44:32.209Z,1019.66
2023-01-22T05:45:10.967Z,1019.64
2023-01-22T05:45:51.512Z,1019.65
2023-01-22T05:46:31.994Z,1019.66
2023-01-22T05:47:12.426Z,1019.69
2023-01-22T05:47:52.935Z,1019.67
2023-01-22T05:48:33.443Z,1019.7
2023-01-22T05:49:13.930Z,1019.69
2023-01-22T05:49:54.440Z,1019.68
2023-01-22T05:50:34.881Z,1019.73
2023-01-22T05:51:15.431Z,1019.74
2023-01-22T05:51:55.858Z,1019.72
2023-01-22T05:52:36.473Z,1019.75
2023-01-22T06:32:17.820Z,1019.68
2023-01-22T06:32:58.228Z,1019.71
2023-01-22T06:33:38.705Z,1019.7
2023-01-22T06:34:19.188Z,1019.7
2023-01-22T06:34:59.657Z,1019.76
2023-01-22T06:35:40.117Z,1019.7
2023-01-22T06:36:20.602Z,1019.77
2023-01-22T06:37:01.087Z,1019.72
2023-01-22T06:37:41.570Z,1019.74
2023-01-22T06:38:22.109Z,1019.74
2023-01-22T06:39:03.147Z,1019.79
2023-01-22T06:39:43.632Z,1019.78
2023-01-22T06:40:24.165Z,1019.76
2023-01-22T06:41:04.659Z,1019.79
2023-01-22T06:41:45.131Z,1019.8
2023-01-22T06:42:25.631Z,1019.8
2023-01-22T06:43:06.103Z,1019.78
2023-01-22T06:43:46.582Z,1019.78
2023-01-22T06:44:27.112Z,1019.82
2023-01-22T06:45:07.626Z,1019.87
2023-01-22T06:45:48.126Z,1019.84
2023-01-22T06:46:28.647Z,1019.84
2023-01-22T06:47:09.130Z,1019.86
2023-01-22T06:47:49.733Z,1019.87
2023-01-22T06:48:30.173Z,1019.92
2023-01-22T06:49:10.634Z,1019.87
2023-01-22T06:49:51.128Z,1019.88
2023-01-22T06:50:31.614Z,1019.89
2023-01-22T06:51:12.178Z,1019.89
2023-01-22T06:51:52.648Z,1019.9
2023-01-22T06:52:33.116Z,1019.92
2023-01-22T06:53:13.684Z,1019.9
2023-01-22T06:54:34.757Z,1019.91
2023-01-22T06:55:15.245Z,1019.88
2023-01-22T06:55:55.716Z,1019.9
2023-01-22T06:56:36.245Z,1019.92
2023-01-22T06:57:16.745Z,1019.85
2023-01-22T06:57:57.225Z,1019.87
2023-01-22T06:58:37.731Z,1019.89
2023-01-22T06:59:18.248Z,1019.88
2023-01-22T06:59:58.740Z,1019.83
2023-01-22T07:00:39.242Z,1019.82
2023-01-22T07:02:00.254Z,1019.79
2023-01-22T07:02:40.664Z,1019.86
2023-01-22T07:03:21.292Z,1019.88
2023-01-22T07:04:01.728Z,1019.89
2023-01-22T07:04:42.155Z,1019.87
2023-01-22T07:05:23.192Z,1019.93
2023-01-22T07:06:03.145Z,1019.89
2023-01-22T07:06:43.656Z,1019.94
2023-01-22T07:07:24.820Z,1019.97
2023-01-22T07:08:05.278Z,1019.97
2023-01-22T07:08:45.809Z,1020
2023-01-22T07:09:26.264Z,1019.99
2023-01-22T07:10:06.757Z,1020
2023-01-22T07:10:47.233Z,1020
2023-01-22T07:11:27.741Z,1020.02
2023-01-22T07:12:08.183Z,1020.05
2023-01-22T07:12:48.677Z,1020.05
2023-01-22T07:13:29.243Z,1020
2023-01-22T07:14:09.686Z,1020.03
2023-01-22T07:14:50.235Z,1020.03
2023-01-22T07:15:30.708Z,1020
2023-01-22T07:16:11.267Z,1020.01
2023-01-22T07:16:51.722Z,1020
2023-01-22T07:17:32.205Z,1020
2023-01-22T07:18:12.720Z,1020.01
2023-01-22T07:19:33.713Z,1020
2023-01-22T07:20:14.265Z,1020.05
2023-01-22T07:20:54.683Z,1020.01
2023-01-22T07:21:35.200Z,1020.05
2023-01-22T07:22:15.698Z,1020.06
2023-01-22T07:22:57.304Z,1020.08
2023-01-22T07:23:36.695Z,1020.07
2023-01-22T07:24:17.237Z,1020.1
2023-01-22T07:24:57.712Z,1020.12
2023-01-22T07:25:38.895Z,1020.06
2023-01-22T07:26:18.719Z,1020.11
2023-01-22T07:26:59.181Z,1020.13
2023-01-22T07:27:39.692Z,1020.15
2023-01-22T07:28:20.217Z,1020.14
2023-01-22T07:29:00.715Z,1020.22
2023-01-22T07:29:41.240Z,1020.22
2023-01-22T07:30:21.732Z,1020.23
2023-01-22T07:31:02.311Z,1020.22
2023-01-22T07:31:42.812Z,1020.25
2023-01-22T07:32:23.259Z,1020.23
2023-01-22T07:33:03.756Z,1020.21
2023-01-22T07:33:44.246Z,1020.24
2023-01-22T07:34:24.810Z,1020.23
2023-01-22T07:35:05.206Z,1020.25
2023-01-22T07:35:45.739Z,1020.25
2023-01-22T07:36:26.859Z,1020.31
2023-01-22T07:37:07.357Z,1020.27
2023-01-22T07:37:47.884Z,1020.25
2023-01-22T07:38:28.316Z,1020.24
2023-01-22T07:39:08.787Z,1020.21
2023-01-22T07:39:49.303Z,1020.25
2023-01-22T07:40:29.782Z,1020.24
2023-01-22T07:41:24.480Z,1020.3
2023-01-22T07:41:50.755Z,1020.28
2023-01-22T07:42:31.206Z,1020.28
2023-01-22T07:43:11.672Z,1020.3
2023-01-22T07:43:52.140Z,1020.31
2023-01-22T07:44:32.616Z,1020.36
2023-01-22T07:45:13.111Z,1020.35
2023-01-22T07:45:53.599Z,1020.42
2023-01-22T07:46:34.104Z,1020.38
2023-01-22T07:47:14.544Z,1020.4
2023-01-22T07:47:55.044Z,1020.4
2023-01-22T07:48:35.508Z,1020.39
2023-01-22T07:49:16.037Z,1020.41
2023-01-22T07:49:56.636Z,1020.45
2023-01-22T07:50:36.987Z,1020.45
2023-01-22T07:51:17.548Z,1020.46
2023-01-22T07:51:57.924Z,1020.48
2023-01-22T07:52:38.420Z,1020.47
2023-01-22T07:53:18.904Z,1020.47
2023-01-22T07:53:59.395Z,1020.49
2023-01-22T07:54:39.880Z,1020.47
2023-01-22T07:55:20.349Z,1020.5
2023-01-22T07:56:00.887Z,1020.44
2023-01-22T07:56:41.447Z,1020.44
2023-01-22T07:57:21.898Z,1020.48
2023-01-22T07:58:02.405Z,1020.47
2023-01-22T07:58:42.880Z,1020.44
2023-01-22T08:00:03.907Z,1020.47
2023-01-22T08:00:44.471Z,1020.41
2023-01-22T08:01:24.881Z,1020.45
2023-01-22T08:02:05.396Z,1020.43
2023-01-22T08:02:45.879Z,1020.45
2023-01-22T08:03:26.364Z,1020.43
2023-01-22T08:04:06.845Z,1020.42
2023-01-22T08:05:28.060Z,1020.42
2023-01-22T08:06:08.507Z,1020.44
2023-01-22T08:06:48.934Z,1020.45
2023-01-22T08:07:29.508Z,1020.5
2023-01-22T08:08:09.966Z,1020.47
2023-01-22T08:08:50.485Z,1020.48
2023-01-22T08:09:30.940Z,1020.48
2023-01-22T08:10:11.420Z,1020.46
2023-01-22T08:10:51.959Z,1020.48
2023-01-22T08:11:32.447Z,1020.47
2023-01-22T08:12:12.993Z,1020.44
2023-01-22T08:12:53.400Z,1020.46
2023-01-22T08:13:33.891Z,1020.46
2023-01-22T08:14:14.344Z,1020.47
2023-01-22T08:14:54.895Z,1020.44
2023-01-22T08:15:35.349Z,1020.46
2023-01-22T08:16:15.881Z,1020.45
2023-01-22T08:16:56.326Z,1020.43
2023-01-22T08:17:36.840Z,1020.45
2023-01-22T08:18:19.059Z,1020.39
2023-01-22T08:18:57.817Z,1020.43
2023-01-22T08:19:38.265Z,1020.47
2023-01-22T08:20:19.141Z,1020.46
2023-01-22T08:20:59.326Z,1020.47
2023-01-22T08:21:39.670Z,1020.51
2023-01-22T08:22:20.161Z,1020.48
2023-01-22T08:23:00.675Z,1020.49
2023-01-22T08:23:41.162Z,1020.49
2023-01-22T08:24:21.642Z,1020.53
2023-01-22T08:25:42.613Z,1020.56
2023-01-22T08:26:23.144Z,1020.57
2023-01-22T08:27:03.640Z,1020.56
2023-01-22T08:27:44.126Z,1020.57
2023-01-22T08:28:24.580Z,1020.58
2023-01-22T08:29:07.502Z,1020.58
2023-01-22T08:29:45.553Z,1020.61
2023-01-22T08:30:26.062Z,1020.59
2023-01-22T08:31:07.877Z,1020.58
2023-01-22T08:31:47.182Z,1020.66
2023-01-22T08:32:27.596Z,1020.66
2023-01-22T08:33:08.042Z,1020.7
2023-01-22T08:33:48.531Z,1020.69
2023-01-22T08:34:29.057Z,1020.66
2023-01-22T08:35:09.515Z,1020.64
2023-01-22T08:35:49.988Z,1020.6
2023-01-22T08:36:30.629Z,1020.61
2023-01-22T08:37:10.970Z,1020.59
2023-01-22T08:37:51.413Z,1020.58
2023-01-22T08:38:31.893Z,1020.62
2023-01-22T08:39:12.362Z,1020.65
2023-01-22T08:39:52.839Z,1020.63
2023-01-22T08:40:33.339Z,1020.65
2023-01-22T08:41:13.834Z,1020.64
2023-01-22T08:41:54.329Z,1020.62
2023-01-22T08:42:34.845Z,1020.59
2023-01-22T08:43:55.878Z,1020.58
2023-01-22T08:44:36.340Z,1020.56
2023-01-22T08:45:16.837Z,1020.61
2023-01-22T08:45:57.326Z,1020.57
2023-01-22T08:46:37.777Z,1020.59
2023-01-22T08:47:18.271Z,1020.58
2023-01-22T08:47:58.766Z,1020.62
2023-01-22T08:48:39.325Z,1020.6
2023-01-22T08:49:19.751Z,1020.61
2023-01-22T08:50:00.249Z,1020.61
2023-01-22T08:50:40.772Z,1020.61
2023-01-22T08:51:21.358Z,1020.64
2023-01-22T08:52:01.959Z,1020.66
2023-01-22T08:52:42.335Z,1020.66
2023-01-22T08:53:22.835Z,1020.65
2023-01-22T08:54:03.307Z,1020.69
2023-01-22T08:54:43.786Z,1020.71
2023-01-22T08:55:24.306Z,1020.7
2023-01-22T08:56:04.862Z,1020.67
2023-01-22T08:56:45.354Z,1020.67
2023-01-22T08:57:25.827Z,1020.7
2023-01-22T08:58:06.297Z,1020.7
2023-01-22T08:58:46.771Z,1020.73
2023-01-22T08:59:28.852Z,1020.71
2023-01-22T09:00:07.740Z,1020.72
2023-01-22T09:00:48.298Z,1020.73
2023-01-22T09:01:28.720Z,1020.68
2023-01-22T09:02:09.250Z,1020.65
2023-01-22T09:02:49.718Z,1020.66
2023-01-22T09:03:30.197Z,1020.65
2023-01-22T09:04:10.667Z,1020.59
2023-01-22T09:04:51.159Z,1020.62
2023-01-22T09:05:31.669Z,1020.62
2023-01-22T09:06:12.182Z,1020.6
2023-01-22T09:07:33.368Z,1020.61
2023-01-22T09:08:13.711Z,1020.63
2023-01-22T09:08:54.178Z,1020.63
2023-01-22T09:09:34.761Z,1020.65
2023-01-22T09:10:15.238Z,1020.63
2023-01-22T09:10:55.795Z,1020.63
2023-01-22T09:11:36.279Z,1020.65
2023-01-22T09:12:16.812Z,1020.66
2023-01-22T09:12:57.265Z,1020.63
2023-01-22T09:13:37.824Z,1020.67
2023-01-22T09:14:18.268Z,1020.68
2023-01-22T09:14:58.750Z,1020.69
2023-01-22T09:15:39.261Z,1020.72
2023-01-22T09:16:19.800Z,1020.71
2023-01-22T09:17:00.243Z,1020.73
2023-01-22T09:17:40.730Z,1020.73
2023-01-22T09:18:21.215Z,1020.7
2023-01-22T09:19:01.735Z,1020.7
2023-01-22T09:20:22.721Z,1020.76
2023-01-22T09:21:03.148Z,1020.77
2023-01-22T09:21:43.643Z,1020.78
2023-01-22T09:22:24.159Z,1020.78
2023-01-22T09:23:10.644Z,1020.79
2023-01-22T09:23:45.279Z,1020.78
2023-01-22T09:26:03.033Z,1020.76
2023-01-22T09:26:43.595Z,1020.76
2023-01-22T09:27:24.035Z,1020.78
2023-01-22T09:28:04.535Z,1020.78
2023-01-22T09:28:45.019Z,1020.8
2023-01-22T09:29:25.532Z,1020.78
2023-01-22T09:30:06.056Z,1020.8
2023-01-22T09:30:46.623Z,1020.81
2023-01-22T09:31:27.043Z,1020.78
2023-01-22T09:32:48.066Z,1020.76
2023-01-22T09:33:28.556Z,1020.84
2023-01-22T09:34:09.059Z,1020.83
2023-01-22T09:34:49.525Z,1020.84
2023-01-22T09:35:30.031Z,1020.86
2023-01-22T09:36:10.512Z,1020.86
2023-01-22T09:36:51.031Z,1020.85
2023-01-22T09:37:31.553Z,1020.83
2023-01-22T09:38:12.016Z,1020.86
2023-01-22T09:38:52.608Z,1020.88
2023-01-22T09:39:33.007Z,1020.86
2023-01-22T09:40:13.550Z,1020.92
2023-01-22T09:42:26.776Z,1020.89